Time;durP1;ratioP1;P1;durP2;ratioP2;P2;SDS_P1;SDS_P2;PMS_P1;PMS_P2;Temp;Humidity;BMP_temperature;BMP_pressure;BME280_temperature;BME280_humidity;BME280_pressure;Samples;Min_cycle;Max_cycle;Signal;HPM_P1;HPM_P2
2023/12/17 00:01:56;;;;;;;;;;;;;;;;;;5114830;28;19924;-51
2023/12/17 00:04:22;;;;;;;;;;;;;;;;;;5114831;28;20019;-51
2023/12/17 00:06:48;;;;;;;;;;;;;;;;;;5114572;28;19947;-52
2023/12/17 00:09:14;;;;;;;;;;;;;;;;;;5114137;28;19924;-52
2023/12/17 00:11:40;;;;;;;;;;;;;;;;;;5114744;28;19924;-51
2023/12/17 00:14:07;;;;;;;;;;;;;;;;;;5114378;28;19927;-50
2023/12/17 00:16:33;;;;;;;;;;;;;;;;;;5113284;28;19928;-52
2023/12/17 00:18:59;;;;;;;;;;;;;;;;;;5114735;28;19977;-52
2023/12/17 00:21:25;;;;;;;;;;;;;;;;;;5114719;28;19924;-52
2023/12/17 00:23:52;;;;;;;;;;;;;;;;;;5114616;28;19959;-51
2023/12/17 00:26:18;;;;;;;;;;;;;;;;;;5113631;28;19969;-52
2023/12/17 00:28:44;;;;;;;;;;;;;;;;;;5113961;28;19924;-51
2023/12/17 00:31:10;;;;;;;;;;;;;;;;;;5114069;28;19924;-52
2023/12/17 00:33:36;;;;;;;;;;;;;;;;;;5114373;28;20278;-52
2023/12/17 00:36:03;;;;;;;;;;;;;;;;;;5114091;28;19953;-52
2023/12/17 00:38:29;;;;;;;;;;;;;;;;;;5114006;28;19950;-52
2023/12/17 00:40:55;;;;;;;;;;;;;;;;;;5113845;28;19924;-52
2023/12/17 00:43:21;;;;;;;;;;;;;;;;;;5114055;28;19957;-51
2023/12/17 00:45:47;;;;;;;;;;;;;;;;;;5113805;28;20351;-52
2023/12/17 00:48:13;;;;;;;;;;;;;;;;;;5114090;28;20259;-52
2023/12/17 00:50:40;;;;;;;;;;;;;;;;;;5113660;28;19981;-51
2023/12/17 00:53:06;;;;;;;;;;;;;;;;;;5113609;28;19931;-52
2023/12/17 00:55:32;;;;;;;;;;;;;;;;;;5114098;28;19924;-51
2023/12/17 00:57:58;;;;;;;;;;;;;;;;;;5113847;28;19989;-52
2023/12/17 01:00:24;;;;;;;;;;;;;;;;;;5113784;28;19980;-51
2023/12/17 01:02:51;;;;;;;;;;;;;;;;;;5113658;28;19931;-52
2023/12/17 01:05:17;;;;;;;;;;;;;;;;;;5113796;28;19930;-52
2023/12/17 01:07:43;;;;;;;;;;;;;;;;;;5113664;28;19934;-52
2023/12/17 01:10:09;;;;;;;;;;;;;;;;;;5113011;28;19924;-52
2023/12/17 01:12:35;;;;;;;;;;;;;;;;;;5113683;28;19924;-52
2023/12/17 01:15:01;;;;;;;;;;;;;;;;;;5113192;28;19977;-52
2023/12/17 01:17:28;;;;;;;;;;;;;;;;;;5113725;28;20386;-52
2023/12/17 01:19:54;;;;;;;;;;;;;;;;;;5113740;28;20018;-50
2023/12/17 01:22:20;;;;;;;;;;;;;;;;;;5113507;28;19924;-51
2023/12/17 01:24:49;;;;;;;;;;;;;;;;;;5113598;28;19923;-51
2023/12/17 01:27:15;;;;;;;;;;;;;;;;;;5113490;28;19924;-52
2023/12/17 01:29:41;;;;;;;;;;;;;;;;;;5113399;28;20091;-52
2023/12/17 01:32:08;;;;;;;;;;;;;;;;;;5113441;28;19938;-51
2023/12/17 01:34:34;;;;;;;;;;;;;;;;;;5113496;28;19928;-51
2023/12/17 01:37:00;;;;;;;;;;;;;;;;;;5114052;28;19928;-52
2023/12/17 01:39:26;;;;;;;;;;;;;;;;;;5120021;27;19969;-52
2023/12/17 01:41:52;;;;;;;;;;;;;;;;;;5120271;27;20044;-52
2023/12/17 01:44:19;;;;;;;;;;;;;;;;;;5119780;27;20332;-51
2023/12/17 01:46:45;;;;;;;;;;;;;;;;;;5120306;27;19924;-51
2023/12/17 01:49:11;;;;;;;;;;;;;;;;;;5120205;28;19928;-52
2023/12/17 01:51:38;;;;;;;;;;;;;;;;;;5120008;27;19965;-52
2023/12/17 01:54:04;;;;;;;;;;;;;;;;;;5119737;27;19928;-52
2023/12/17 01:56:30;;;;;;;;;;;;;;;;;;5118259;28;19939;-51
2023/12/17 01:58:56;;;;;;;;;;;;;;;;;;5119899;27;19984;-51
2023/12/17 02:01:22;;;;;;;;;;;;;;;;;;5119747;28;19924;-52
2023/12/17 02:03:49;;;;;;;;;;;;;;;;;;5119837;27;20305;-52
2023/12/17 02:06:15;;;;;;;;;;;;;;;;;;5120002;27;19927;-52
2023/12/17 02:08:41;;;;;;;;;;;;;;;;;;5119728;27;19987;-51
2023/12/17 02:11:07;;;;;;;;;;;;;;;;;;5119956;27;19976;-52
2023/12/17 02:13:33;;;;;;;;;;;;;;;;;;5119538;27;20390;-52
2023/12/17 02:15:59;;;;;;;;;;;;;;;;;;5119670;27;20059;-51
2023/12/17 02:18:26;;;;;;;;;;;;;;;;;;5120010;27;19924;-50
2023/12/17 02:20:52;;;;;;;;;;;;;;;;;;5119922;27;19924;-52
2023/12/17 02:23:18;;;;;;;;;;;;;;;;;;5119878;27;19972;-51
2023/12/17 02:25:44;;;;;;;;;;;;;;;;;;5119640;27;19927;-52
2023/12/17 02:28:10;;;;;;;;;;;;;;;;;;5119750;27;19970;-53
2023/12/17 02:30:36;;;;;;;;;;;;;;;;;;5119671;27;19923;-52
2023/12/17 02:33:03;;;;;;;;;;;;;;;;;;5119164;27;19931;-52
2023/12/17 02:35:29;;;;;;;;;;;;;;;;;;5119124;27;19927;-51
2023/12/17 02:37:55;;;;;;;;;;;;;;;;;;5119201;27;19984;-51
2023/12/17 02:40:21;;;;;;;;;;;;;;;;;;5119516;27;19976;-52
2023/12/17 02:42:47;;;;;;;;;;;;;;;;;;5119542;27;19976;-52
2023/12/17 02:45:13;;;;;;;;;;;;;;;;;;5119127;28;20024;-52
2023/12/17 02:47:40;;;;;;;;;;;;;;;;;;5119791;27;19930;-51
2023/12/17 02:50:06;;;;;;;;;;;;;;;;;;5115861;27;19977;-50
2023/12/17 02:52:32;;;;;;;;;;;;;;;;;;5116460;27;20274;-51
2023/12/17 02:54:59;;;;;;;;;;;;;;;;;;5116122;28;19980;-52
2023/12/17 02:57:26;;;;;;;;;;;;;;;;;;5115786;28;19994;-52
2023/12/17 02:59:53;;;;;;;;;;;;;;;;;;5116158;28;19931;-52
2023/12/17 03:02:19;;;;;;;;;;;;;;;;;;5115978;28;19930;-52
2023/12/17 03:04:46;;;;;;;;;;;;;;;;;;5115851;28;20420;-51
2023/12/17 03:07:12;;;;;;;;;;;;;;;;;;5116089;28;19931;-52
2023/12/17 03:09:38;;;;;;;;;;;;;;;;;;5115786;28;19973;-51
2023/12/17 03:12:04;;;;;;;;;;;;;;;;;;5116094;28;19935;-50
2023/12/17 03:14:31;;;;;;;;;;;;;;;;;;5115611;28;19987;-51
2023/12/17 03:16:57;;;;;;;;;;;;;;;;;;5116052;28;19972;-51
2023/12/17 03:19:23;;;;;;;;;;;;;;;;;;5115964;28;19924;-51
2023/12/17 03:21:49;;;;;;;;;;;;;;;;;;5115866;28;20358;-50
2023/12/17 03:24:15;;;;;;;;;;;;;;;;;;5115641;28;19973;-52
2023/12/17 03:26:42;;;;;;;;;;;;;;;;;;5115475;28;19923;-49
2023/12/17 03:29:08;;;;;;;;;;;;;;;;;;5115647;28;19930;-51
2023/12/17 03:31:34;;;;;;;;;;;;;;;;;;5115618;28;19977;-51
2023/12/17 03:34:00;;;;;;;;;;;;;;;;;;5115630;28;19972;-50
2023/12/17 03:36:27;;;;;;;;;;;;;;;;;;5115313;28;20287;-51
2023/12/17 03:38:53;;;;;;;;;;;;;;;;;;5115051;28;19923;-49
2023/12/17 03:41:19;;;;;;;;;;;;;;;;;;5115485;28;19927;-51
2023/12/17 03:43:45;;;;;;;;;;;;;;;;;;5115344;28;19977;-51
2023/12/17 03:46:11;;;;;;;;;;;;;;;;;;5115141;28;20376;-51
2023/12/17 03:48:37;;;;;;;;;;;;;;;;;;5115464;28;20325;-52
2023/12/17 03:51:04;;;;;;;;;;;;;;;;;;5115146;28;20313;-51
2023/12/17 03:53:30;;;;;;;;;;;;;;;;;;5115146;28;19946;-47
2023/12/17 03:55:56;;;;;;;;;;;;;;;;;;5115069;28;19924;-50
2023/12/17 03:58:22;;;;;;;;;;;;;;;;;;5114667;28;19924;-51
2023/12/17 04:00:48;;;;;;;;;;;;;;;;;;5114308;28;19927;-51
2023/12/17 04:03:14;;;;;;;;;;;;;;;;;;5114550;28;19968;-51
2023/12/17 04:05:41;;;;;;;;;;;;;;;;;;5114855;28;20389;-51
2023/12/17 04:08:07;;;;;;;;;;;;;;;;;;5114886;28;20006;-49
2023/12/17 04:10:33;;;;;;;;;;;;;;;;;;5114330;28;20366;-51
2023/12/17 04:12:59;;;;;;;;;;;;;;;;;;5114628;28;20341;-51
2023/12/17 04:15:25;;;;;;;;;;;;;;;;;;5114354;28;20283;-50
2023/12/17 04:17:52;;;;;;;;;;;;;;;;;;5114943;28;20369;-50
2023/12/17 04:20:18;;;;;;;;;;;;;;;;;;5114856;28;19928;-49
2023/12/17 04:22:44;;;;;;;;;;;;;;;;;;5114439;28;19976;-52
2023/12/17 04:25:11;;;;;;;;;;;;;;;;;;5114416;28;19924;-51
2023/12/17 04:27:37;;;;;;;;;;;;;;;;;;5111208;28;19924;-52
2023/12/17 04:30:03;;;;;;;;;;;;;;;;;;5114191;28;19924;-51
2023/12/17 04:32:30;;;;;;;;;;;;;;;;;;5114421;28;19924;-49
2023/12/17 04:34:56;;;;;;;;;;;;;;;;;;5114173;28;19927;-50
2023/12/17 04:37:22;;;;;;;;;;;;;;;;;;5114112;28;19928;-49
2023/12/17 04:39:48;;;;;;;;;;;;;;;;;;5114087;28;20352;-50
2023/12/17 04:42:14;;;;;;;;;;;;;;;;;;5113660;28;19928;-51
2023/12/17 04:44:40;;;;;;;;;;;;;;;;;;5113502;28;19928;-49
2023/12/17 04:47:07;;;;;;;;;;;;;;;;;;5114287;28;20309;-49
2023/12/17 04:49:33;;;;;;;;;;;;;;;;;;5114135;28;20417;-50
2023/12/17 04:51:59;;;;;;;;;;;;;;;;;;5113977;28;20015;-51
2023/12/17 04:54:25;;;;;;;;;;;;;;;;;;5113983;28;19932;-50
2023/12/17 04:56:54;;;;;;;;;;;;;;;;;;5113992;28;19970;-51
2023/12/17 04:59:20;;;;;;;;;;;;;;;;;;5113497;28;20309;-52
2023/12/17 05:01:47;;;;;;;;;;;;;;;;;;5113272;28;19928;-48
2023/12/17 05:04:13;;;;;;;;;;;;;;;;;;5113662;28;20313;-51
2023/12/17 05:06:39;;;;;;;;;;;;;;;;;;5113717;27;20278;-50
2023/12/17 05:09:05;;;;;;;;;;;;;;;;;;5113609;28;19934;-51
2023/12/17 05:11:32;;;;;;;;;;;;;;;;;;5113467;28;19923;-50
2023/12/17 05:13:58;;;;;;;;;;;;;;;;;;5113342;28;20428;-51
2023/12/17 05:16:24;;;;;;;;;;;;;;;;;;5113629;28;19923;-48
2023/12/17 05:18:50;;;;;;;;;;;;;;;;;;5113689;28;20351;-51
2023/12/17 05:21:16;;;;;;;;;;;;;;;;;;5113174;28;20006;-51
2023/12/17 05:23:43;;;;;;;;;;;;;;;;;;5113098;28;20022;-52
2023/12/17 05:26:09;;;;;;;;;;;;;;;;;;5112911;28;19935;-51
2023/12/17 05:28:37;;;;;;;;;;;;;;;;;;5112791;28;19992;-51
2023/12/17 05:31:03;;;;;;;;;;;;;;;;;;5113251;28;19928;-52
2023/12/17 05:33:29;;;;;;;;;;;;;;;;;;5113492;28;20355;-51
2023/12/17 05:35:56;;;;;;;;;;;;;;;;;;5113023;28;19928;-51
2023/12/17 05:38:22;;;;;;;;;;;;;;;;;;5113419;28;19930;-48
2023/12/17 05:40:48;;;;;;;;;;;;;;;;;;5113073;28;19935;-50
2023/12/17 05:43:14;;;;;;;;;;;;;;;;;;5113410;28;19927;-50
2023/12/17 05:45:40;;;;;;;;;;;;;;;;;;5113117;28;19983;-51
2023/12/17 05:48:15;;;;;;;;;;;;;;;;;;5112800;28;21253;-50
2023/12/17 05:50:42;;;;;;;;;;;;;;;;;;5112993;28;19938;-51
2023/12/17 05:53:08;;;;;;;;;;;;;;;;;;5112886;28;20298;-51
2023/12/17 05:55:34;;;;;;;;;;;;;;;;;;5112758;28;20309;-52
2023/12/17 05:58:00;;;;;;;;;;;;;;;;;;5113061;28;20291;-51
2023/12/17 06:00:27;;;;;;;;;;;;;;;;;;5113285;28;19969;-51
2023/12/17 06:02:53;;;;;;;;;;;;;;;;;;5112632;28;19927;-51
2023/12/17 06:05:19;;;;;;;;;;;;;;;;;;5113229;28;19973;-50
2023/12/17 06:07:45;;;;;;;;;;;;;;;;;;5113070;28;19923;-50
2023/12/17 06:10:11;;;;;;;;;;;;;;;;;;5113012;28;19927;-49
2023/12/17 06:12:37;;;;;;;;;;;;;;;;;;5113221;28;20409;-49
2023/12/17 06:15:04;;;;;;;;;;;;;;;;;;5112705;28;19943;-51
2023/12/17 06:17:30;;;;;;;;;;;;;;;;;;5113132;28;19924;-52
2023/12/17 06:19:56;;;;;;;;;;;;;;;;;;5112395;28;19935;-50
2023/12/17 06:22:24;;;;;;;;;;;;;;;;;;5112772;28;19924;-50
2023/12/17 06:24:50;;;;;;;;;;;;;;;;;;5114429;28;19928;-51
2023/12/17 06:27:16;;;;;;;;;;;;;;;;;;5116683;28;19949;-51
2023/12/17 06:29:42;;;;;;;;;;;;;;;;;;5116806;27;19930;-51
2023/12/17 06:32:09;;;;;;;;;;;;;;;;;;5116800;28;19924;-50
2023/12/17 06:34:35;;;;;;;;;;;;;;;;;;5116731;28;19980;-50
2023/12/17 06:37:01;;;;;;;;;;;;;;;;;;5116588;28;20015;-51
2023/12/17 06:39:27;;;;;;;;;;;;;;;;;;5116461;28;19977;-48
2023/12/17 06:41:53;;;;;;;;;;;;;;;;;;5116671;27;20161;-51
2023/12/17 06:44:19;;;;;;;;;;;;;;;;;;5116310;28;19924;-51
2023/12/17 06:46:46;;;;;;;;;;;;;;;;;;5116565;28;19924;-50
2023/12/17 06:49:12;;;;;;;;;;;;;;;;;;5116113;28;19928;-50
2023/12/17 06:51:38;;;;;;;;;;;;;;;;;;5116290;28;20029;-50
2023/12/17 06:54:05;;;;;;;;;;;;;;;;;;5116119;28;20014;-51
2023/12/17 06:56:31;;;;;;;;;;;;;;;;;;5116333;28;19924;-52
2023/12/17 06:58:57;;;;;;;;;;;;;;;;;;5115997;28;19932;-51
2023/12/17 07:01:23;;;;;;;;;;;;;;;;;;5115695;28;19924;-52
2023/12/17 07:03:50;;;;;;;;;;;;;;;;;;5115202;28;19978;-52
2023/12/17 07:06:16;;;;;;;;;;;;;;;;;;5115717;28;19924;-52
2023/12/17 07:08:42;;;;;;;;;;;;;;;;;;5115301;28;20367;-52
2023/12/17 07:11:09;;;;;;;;;;;;;;;;;;5115592;28;20329;-52
2023/12/17 07:13:35;;;;;;;;;;;;;;;;;;5115625;28;19924;-52
2023/12/17 07:16:01;;;;;;;;;;;;;;;;;;5115564;28;19973;-52
2023/12/17 07:18:27;;;;;;;;;;;;;;;;;;5115432;28;19928;-52
2023/12/17 07:20:54;;;;;;;;;;;;;;;;;;5115561;27;20010;-52
2023/12/17 07:23:24;;;;;;;;;;;;;;;;;;5115812;28;19923;-52
2023/12/17 07:25:50;;;;;;;;;;;;;;;;;;5115653;28;19928;-51
2023/12/17 07:28:16;;;;;;;;;;;;;;;;;;5115645;28;19973;-52
2023/12/17 07:30:42;;;;;;;;;;;;;;;;;;5115626;28;19973;-52
2023/12/17 07:33:09;;;;;;;;;;;;;;;;;;5115686;28;20010;-51
2023/12/17 07:35:35;;;;;;;;;;;;;;;;;;5115110;28;19931;-51
2023/12/17 07:38:01;;;;;;;;;;;;;;;;;;5115394;28;20020;-53
2023/12/17 07:40:27;;;;;;;;;;;;;;;;;;5115044;28;19971;-51
2023/12/17 07:42:54;;;;;;;;;;;;;;;;;;5114877;28;19924;-52
2023/12/17 07:45:20;;;;;;;;;;;;;;;;;;5114501;28;19976;-52
2023/12/17 07:47:46;;;;;;;;;;;;;;;;;;5115362;28;19924;-51
2023/12/17 07:50:13;;;;;;;;;;;;;;;;;;5115107;28;19931;-52
2023/12/17 07:52:40;;;;;;;;;;;;;;;;;;5114865;28;19924;-52
2023/12/17 07:55:06;;;;;;;;;;;;;;;;;;5114894;28;20264;-52
2023/12/17 07:57:33;;;;;;;;;;;;;;;;;;5115056;28;19928;-53
2023/12/17 07:59:59;;;;;;;;;;;;;;;;;;5114652;28;20014;-53
2023/12/17 08:02:26;;;;;;;;;;;;;;;;;;5115062;28;19970;-52
2023/12/17 08:04:52;;;;;;;;;;;;;;;;;;5114639;27;19969;-52
2023/12/17 08:07:18;;;;;;;;;;;;;;;;;;5114803;28;19967;-52
2023/12/17 08:09:45;;;;;;;;;;;;;;;;;;5114844;28;20383;-51
2023/12/17 08:12:11;;;;;;;;;;;;;;;;;;5114696;28;19924;-52
2023/12/17 08:14:37;;;;;;;;;;;;;;;;;;5114181;28;19967;-52
2023/12/17 08:17:03;;;;;;;;;;;;;;;;;;5114684;27;19953;-52
2023/12/17 08:19:30;;;;;;;;;;;;;;;;;;5114024;28;20322;-52
2023/12/17 08:21:56;;;;;;;;;;;;;;;;;;5114549;28;19924;-52
2023/12/17 08:24:22;;;;;;;;;;;;;;;;;;5114626;28;19982;-52
2023/12/17 08:26:48;;;;;;;;;;;;;;;;;;5114201;28;20248;-52
2023/12/17 08:29:14;;;;;;;;;;;;;;;;;;5114498;28;20379;-53
2023/12/17 08:31:41;;;;;;;;;;;;;;;;;;5114559;28;20322;-52
2023/12/17 08:34:07;;;;;;;;;;;;;;;;;;5114359;28;20413;-52
2023/12/17 08:36:33;;;;;;;;;;;;;;;;;;5114354;28;19924;-52
2023/12/17 08:38:59;;;;;;;;;;;;;;;;;;5113684;28;20360;-52
2023/12/17 08:41:25;;;;;;;;;;;;;;;;;;5114078;28;19931;-52
2023/12/17 08:43:51;;;;;;;;;;;;;;;;;;5114045;28;19924;-53
2023/12/17 08:46:18;;;;;;;;;;;;;;;;;;5113333;28;19924;-52
2023/12/17 08:48:44;;;;;;;;;;;;;;;;;;5113511;28;19931;-52
2023/12/17 08:51:10;;;;;;;;;;;;;;;;;;5113772;28;19946;-52
2023/12/17 08:53:36;;;;;;;;;;;;;;;;;;5114059;28;19924;-52
2023/12/17 08:56:03;;;;;;;;;;;;;;;;;;5114011;28;19924;-53
2023/12/17 08:58:29;;;;;;;;;;;;;;;;;;5113667;28;19989;-52
2023/12/17 09:00:55;;;;;;;;;;;;;;;;;;5113595;28;20244;-52
2023/12/17 09:03:21;;;;;;;;;;;;;;;;;;5113952;28;20377;-51
2023/12/17 09:05:48;;;;;;;;;;;;;;;;;;5113904;28;19935;-52
2023/12/17 09:08:14;;;;;;;;;;;;;;;;;;5112907;28;19924;-50
2023/12/17 09:10:40;;;;;;;;;;;;;;;;;;5112711;28;20364;-51
2023/12/17 09:13:09;;;;;;;;;;;;;;;;;;5113166;28;20337;-52
2023/12/17 09:15:35;;;;;;;;;;;;;;;;;;5113401;28;19924;-52
2023/12/17 09:18:01;;;;;;;;;;;;;;;;;;5113321;28;20380;-52
2023/12/17 09:20:28;;;;;;;;;;;;;;;;;;5113166;28;19971;-52
2023/12/17 09:22:54;;;;;;;;;;;;;;;;;;5113556;28;20287;-52
2023/12/17 09:25:20;;;;;;;;;;;;;;;;;;5113564;28;19928;-52
2023/12/17 09:27:47;;;;;;;;;;;;;;;;;;5113661;28;19924;-51
2023/12/17 09:30:13;;;;;;;;;;;;;;;;;;5113603;28;19946;-51
2023/12/17 09:32:40;;;;;;;;;;;;;;;;;;5113720;28;19928;-51
2023/12/17 09:35:06;;;;;;;;;;;;;;;;;;5113459;28;19923;-52
2023/12/17 09:37:33;;;;;;;;;;;;;;;;;;5113442;28;19924;-52
2023/12/17 09:39:59;;;;;;;;;;;;;;;;;;5112837;28;19924;-52
2023/12/17 09:42:25;;;;;;;;;;;;;;;;;;5113183;28;19927;-52
2023/12/17 09:44:51;;;;;;;;;;;;;;;;;;5112911;28;19923;-52
2023/12/17 09:47:17;;;;;;;;;;;;;;;;;;5113140;28;19947;-52
2023/12/17 09:49:44;;;;;;;;;;;;;;;;;;5113227;28;20371;-51
2023/12/17 09:52:11;;;;;;;;;;;;;;;;;;5113335;28;19930;-52
2023/12/17 09:54:37;;;;;;;;;;;;;;;;;;5113486;28;19924;-51
2023/12/17 09:57:03;;;;;;;;;;;;;;;;;;5113272;28;19959;-52
2023/12/17 09:59:30;;;;;;;;;;;;;;;;;;5115919;28;19923;-52
2023/12/17 10:01:56;;;;;;;;;;;;;;;;;;5117405;27;19927;-52
2023/12/17 10:04:22;;;;;;;;;;;;;;;;;;5117469;28;20382;-52
2023/12/17 10:06:48;;;;;;;;;;;;;;;;;;5117276;28;19934;-52
2023/12/17 10:09:14;;;;;;;;;;;;;;;;;;5116607;28;19973;-52
2023/12/17 10:11:40;;;;;;;;;;;;;;;;;;5116596;28;19923;-52
2023/12/17 10:14:07;;;;;;;;;;;;;;;;;;5116138;28;20016;-49
2023/12/17 10:16:33;;;;;;;;;;;;;;;;;;5117015;28;19924;-52
2023/12/17 10:18:59;;;;;;;;;;;;;;;;;;5116678;28;19924;-51
2023/12/17 10:21:26;;;;;;;;;;;;;;;;;;5116224;28;20359;-51
2023/12/17 10:23:52;;;;;;;;;;;;;;;;;;5116855;28;19927;-49
2023/12/17 10:26:19;;;;;;;;;;;;;;;;;;5116686;28;19928;-51
2023/12/17 10:28:46;;;;;;;;;;;;;;;;;;5116591;28;20394;-51
2023/12/17 10:31:12;;;;;;;;;;;;;;;;;;5116776;28;20398;-50
2023/12/17 10:33:38;;;;;;;;;;;;;;;;;;5115699;28;19988;-51
2023/12/17 10:36:05;;;;;;;;;;;;;;;;;;5116711;28;19950;-51
2023/12/17 10:38:31;;;;;;;;;;;;;;;;;;5116805;28;19928;-51
2023/12/17 10:40:57;;;;;;;;;;;;;;;;;;5116206;27;19927;-51
2023/12/17 10:43:23;;;;;;;;;;;;;;;;;;5116272;28;19924;-51
2023/12/17 10:45:49;;;;;;;;;;;;;;;;;;5115868;28;19989;-51
2023/12/17 10:48:15;;;;;;;;;;;;;;;;;;5116669;28;19985;-51
2023/12/17 10:50:42;;;;;;;;;;;;;;;;;;5116402;28;20409;-51
2023/12/17 10:53:08;;;;;;;;;;;;;;;;;;5116060;28;20305;-51
2023/12/17 10:55:34;;;;;;;;;;;;;;;;;;5116469;28;19924;-51
2023/12/17 10:58:00;;;;;;;;;;;;;;;;;;5116409;28;19976;-51
2023/12/17 11:00:26;;;;;;;;;;;;;;;;;;5116163;28;19928;-49
2023/12/17 11:02:53;;;;;;;;;;;;;;;;;;5116301;28;20359;-50
2023/12/17 11:05:19;;;;;;;;;;;;;;;;;;5116338;28;20024;-51
2023/12/17 11:07:45;;;;;;;;;;;;;;;;;;5116143;28;20015;-49
2023/12/17 11:10:12;;;;;;;;;;;;;;;;;;5114857;28;19928;-50
2023/12/17 11:12:38;;;;;;;;;;;;;;;;;;5115959;28;19928;-51
2023/12/17 11:15:04;;;;;;;;;;;;;;;;;;5115513;28;19957;-51
2023/12/17 11:17:30;;;;;;;;;;;;;;;;;;5116018;28;19978;-51
2023/12/17 11:19:56;;;;;;;;;;;;;;;;;;5115686;28;20265;-51
2023/12/17 11:22:23;;;;;;;;;;;;;;;;;;5115735;28;19924;-51
2023/12/17 11:24:49;;;;;;;;;;;;;;;;;;5115903;28;20160;-51
2023/12/17 11:27:15;;;;;;;;;;;;;;;;;;5115330;28;19959;-51
2023/12/17 11:29:41;;;;;;;;;;;;;;;;;;5115691;28;19950;-51
2023/12/17 11:32:07;;;;;;;;;;;;;;;;;;5115888;27;19924;-52
2023/12/17 11:34:34;;;;;;;;;;;;;;;;;;5115520;28;19990;-50
2023/12/17 11:37:00;;;;;;;;;;;;;;;;;;5115472;28;20287;-51
2023/12/17 11:39:26;;;;;;;;;;;;;;;;;;5115170;28;20355;-51
2023/12/17 11:41:53;;;;;;;;;;;;;;;;;;5115331;28;19928;-50
2023/12/17 11:44:19;;;;;;;;;;;;;;;;;;5115097;28;19928;-51
2023/12/17 11:46:45;;;;;;;;;;;;;;;;;;5115070;28;19924;-51
2023/12/17 11:49:11;;;;;;;;;;;;;;;;;;5115322;28;19973;-51
2023/12/17 11:51:37;;;;;;;;;;;;;;;;;;5115106;28;20248;-50
2023/12/17 11:54:03;;;;;;;;;;;;;;;;;;5115081;27;19927;-51
2023/12/17 11:56:30;;;;;;;;;;;;;;;;;;5115081;28;19928;-51
2023/12/17 11:58:56;;;;;;;;;;;;;;;;;;5114201;28;19931;-51
2023/12/17 12:01:22;;;;;;;;;;;;;;;;;;5115029;28;19923;-49
2023/12/17 12:03:48;;;;;;;;;;;;;;;;;;5115136;28;20275;-51
2023/12/17 12:06:15;;;;;;;;;;;;;;;;;;5114837;28;19934;-50
2023/12/17 12:08:41;;;;;;;;;;;;;;;;;;5114653;28;19924;-49
2023/12/17 12:11:07;;;;;;;;;;;;;;;;;;5114832;28;19973;-51
2023/12/17 12:13:34;;;;;;;;;;;;;;;;;;5114795;28;20018;-51
2023/12/17 12:16:02;;;;;;;;;;;;;;;;;;5114488;28;20327;-52
2023/12/17 12:18:28;;;;;;;;;;;;;;;;;;5114927;28;19969;-51
2023/12/17 12:20:55;;;;;;;;;;;;;;;;;;5114563;28;19924;-50
2023/12/17 12:23:21;;;;;;;;;;;;;;;;;;5114783;28;19924;-50
2023/12/17 12:25:47;;;;;;;;;;;;;;;;;;5114356;28;19923;-50
2023/12/17 12:28:13;;;;;;;;;;;;;;;;;;5114135;28;19980;-51
2023/12/17 12:30:39;;;;;;;;;;;;;;;;;;5114726;28;19992;-51
2023/12/17 12:33:05;;;;;;;;;;;;;;;;;;5114523;28;20268;-51
2023/12/17 12:35:33;;;;;;;;;;;;;;;;;;5114170;28;19932;-50
2023/12/17 12:37:59;;;;;;;;;;;;;;;;;;5114212;28;19923;-51
2023/12/17 12:40:25;;;;;;;;;;;;;;;;;;5113990;28;19961;-50
2023/12/17 12:42:51;;;;;;;;;;;;;;;;;;5114197;28;20386;-51
2023/12/17 12:45:18;;;;;;;;;;;;;;;;;;5113983;27;20371;-50
2023/12/17 12:47:44;;;;;;;;;;;;;;;;;;5113976;28;20275;-50
2023/12/17 12:50:10;;;;;;;;;;;;;;;;;;5114154;28;19966;-51
2023/12/17 12:52:36;;;;;;;;;;;;;;;;;;5114223;27;19945;-51
2023/12/17 12:55:03;;;;;;;;;;;;;;;;;;5113907;28;20336;-51
2023/12/17 12:57:29;;;;;;;;;;;;;;;;;;5114136;28;20283;-51
2023/12/17 12:59:57;;;;;;;;;;;;;;;;;;5114140;28;19930;-51
2023/12/17 13:02:23;;;;;;;;;;;;;;;;;;5114148;28;19927;-50
2023/12/17 13:04:50;;;;;;;;;;;;;;;;;;5113905;28;19927;-51
2023/12/17 13:07:16;;;;;;;;;;;;;;;;;;5113769;28;20367;-50
2023/12/17 13:09:43;;;;;;;;;;;;;;;;;;5113663;28;19973;-50
2023/12/17 13:12:12;;;;;;;;;;;;;;;;;;5113742;28;20303;-51
2023/12/17 13:14:39;;;;;;;;;;;;;;;;;;5113409;28;19939;-51
2023/12/17 13:17:06;;;;;;;;;;;;;;;;;;5113594;28;19928;-51
2023/12/17 13:19:32;;;;;;;;;;;;;;;;;;5113415;28;19927;-51
2023/12/17 13:21:58;;;;;;;;;;;;;;;;;;5113686;28;20014;-51
2023/12/17 13:24:24;;;;;;;;;;;;;;;;;;5113185;28;19923;-51
2023/12/17 13:26:50;;;;;;;;;;;;;;;;;;5113481;28;20309;-49
2023/12/17 13:29:16;;;;;;;;;;;;;;;;;;5113644;28;20357;-50
2023/12/17 13:31:43;;;;;;;;;;;;;;;;;;5113721;28;19924;-51
2023/12/17 13:34:09;;;;;;;;;;;;;;;;;;5113092;28;19928;-51
2023/12/17 13:36:35;;;;;;;;;;;;;;;;;;5113082;28;19941;-50
2023/12/17 13:39:01;;;;;;;;;;;;;;;;;;5112816;28;20394;-51
2023/12/17 13:41:28;;;;;;;;;;;;;;;;;;5113115;28;20360;-51
2023/12/17 13:43:54;;;;;;;;;;;;;;;;;;5113103;28;19924;-51
2023/12/17 13:46:20;;;;;;;;;;;;;;;;;;5113174;28;19943;-51
2023/12/17 13:48:46;;;;;;;;;;;;;;;;;;5113328;28;19924;-50
2023/12/17 13:51:13;;;;;;;;;;;;;;;;;;5113393;28;19959;-51
2023/12/17 13:53:39;;;;;;;;;;;;;;;;;;5113533;28;19976;-51
2023/12/17 13:56:05;;;;;;;;;;;;;;;;;;5113400;28;20359;-49
2023/12/17 13:58:31;;;;;;;;;;;;;;;;;;5113467;28;20375;-48
2023/12/17 14:00:58;;;;;;;;;;;;;;;;;;5113363;28;19924;-50
2023/12/17 14:03:26;;;;;;;;;;;;;;;;;;5113224;28;19947;-49
2023/12/17 14:05:54;;;;;;;;;;;;;;;;;;5113138;28;19924;-51
2023/12/17 14:08:20;;;;;;;;;;;;;;;;;;5113115;28;19924;-49
2023/12/17 14:10:46;;;;;;;;;;;;;;;;;;5112612;28;19974;-50
2023/12/17 14:13:13;;;;;;;;;;;;;;;;;;5112720;28;19981;-50
2023/12/17 14:15:39;;;;;;;;;;;;;;;;;;5112340;28;20425;-51
2023/12/17 14:18:05;;;;;;;;;;;;;;;;;;5112827;28;19930;-52
2023/12/17 14:20:31;;;;;;;;;;;;;;;;;;5113179;28;19924;-50
2023/12/17 14:22:57;;;;;;;;;;;;;;;;;;5112892;28;19924;-51
2023/12/17 14:25:23;;;;;;;;;;;;;;;;;;5113202;28;19923;-51
2023/12/17 14:27:50;;;;;;;;;;;;;;;;;;5113114;28;19923;-51
2023/12/17 14:30:16;;;;;;;;;;;;;;;;;;5113197;28;19980;-50
2023/12/17 14:32:42;;;;;;;;;;;;;;;;;;5112915;28;19924;-51
2023/12/17 14:35:09;;;;;;;;;;;;;;;;;;5112445;28;19967;-51
2023/12/17 14:37:36;;;;;;;;;;;;;;;;;;5112805;28;19958;-50
2023/12/17 14:40:03;;;;;;;;;;;;;;;;;;5111928;28;20293;-51
2023/12/17 14:42:29;;;;;;;;;;;;;;;;;;5112770;28;19924;-50
2023/12/17 14:44:55;;;;;;;;;;;;;;;;;;5111853;28;20268;-51
2023/12/17 14:47:22;;;;;;;;;;;;;;;;;;5116581;28;19931;-50
2023/12/17 14:49:48;;;;;;;;;;;;;;;;;;5116603;28;19924;-51
2023/12/17 14:52:14;;;;;;;;;;;;;;;;;;5116611;28;19931;-51
2023/12/17 14:54:41;;;;;;;;;;;;;;;;;;5116553;28;19924;-50
2023/12/17 14:57:07;;;;;;;;;;;;;;;;;;5116461;28;19924;-51
2023/12/17 14:59:36;;;;;;;;;;;;;;;;;;5116389;28;19923;-51
2023/12/17 15:02:02;;;;;;;;;;;;;;;;;;5116176;28;19923;-51
2023/12/17 15:04:30;;;;;;;;;;;;;;;;;;5116208;28;19924;-51
2023/12/17 15:06:56;;;;;;;;;;;;;;;;;;5115852;28;19989;-51
2023/12/17 15:09:24;;;;;;;;;;;;;;;;;;5115782;28;19972;-50
2023/12/17 15:11:51;;;;;;;;;;;;;;;;;;5116203;28;19959;-51
2023/12/17 15:14:17;;;;;;;;;;;;;;;;;;5115705;28;19923;-50
2023/12/17 15:16:43;;;;;;;;;;;;;;;;;;5116076;28;19932;-50
2023/12/17 15:19:10;;;;;;;;;;;;;;;;;;5116070;28;19972;-49
2023/12/17 15:21:36;;;;;;;;;;;;;;;;;;5115982;28;20399;-51
2023/12/17 15:24:02;;;;;;;;;;;;;;;;;;5115974;28;19931;-50
2023/12/17 15:26:29;;;;;;;;;;;;;;;;;;5115913;28;19931;-51
2023/12/17 15:28:56;;;;;;;;;;;;;;;;;;5115744;28;20016;-51
2023/12/17 15:31:22;;;;;;;;;;;;;;;;;;5115676;28;19981;-51
2023/12/17 15:33:48;;;;;;;;;;;;;;;;;;5115746;28;19923;-50
2023/12/17 15:36:15;;;;;;;;;;;;;;;;;;5115325;28;20314;-50
2023/12/17 15:38:43;;;;;;;;;;;;;;;;;;5115246;28;19934;-50
2023/12/17 15:41:09;;;;;;;;;;;;;;;;;;5114996;28;19967;-51
2023/12/17 15:43:35;;;;;;;;;;;;;;;;;;5115439;28;19927;-51
2023/12/17 15:46:02;;;;;;;;;;;;;;;;;;5115149;28;19957;-51
2023/12/17 15:48:28;;;;;;;;;;;;;;;;;;5115474;28;19928;-51
2023/12/17 15:50:56;;;;;;;;;;;;;;;;;;5115355;28;19981;-51
2023/12/17 15:53:22;;;;;;;;;;;;;;;;;;5115479;28;20022;-50
2023/12/17 15:55:48;;;;;;;;;;;;;;;;;;5115148;28;19923;-51
2023/12/17 15:58:16;;;;;;;;;;;;;;;;;;5115026;28;19924;-51
2023/12/17 16:00:42;;;;;;;;;;;;;;;;;;5115100;28;19924;-51
2023/12/17 16:03:08;;;;;;;;;;;;;;;;;;5114973;28;19931;-51
2023/12/17 16:05:34;;;;;;;;;;;;;;;;;;5115010;28;19970;-51
2023/12/17 16:08:01;;;;;;;;;;;;;;;;;;5114870;28;19923;-50
2023/12/17 16:10:27;;;;;;;;;;;;;;;;;;5114476;28;20420;-51
2023/12/17 16:12:53;;;;;;;;;;;;;;;;;;5114910;28;19927;-51
2023/12/17 16:15:19;;;;;;;;;;;;;;;;;;5114277;28;19924;-50
2023/12/17 16:17:46;;;;;;;;;;;;;;;;;;5114004;28;20019;-51
2023/12/17 16:20:13;;;;;;;;;;;;;;;;;;5114502;28;19934;-51
2023/12/17 16:22:42;;;;;;;;;;;;;;;;;;5114938;28;20420;-51
2023/12/17 16:25:09;;;;;;;;;;;;;;;;;;5114555;28;19924;-50
2023/12/17 16:27:35;;;;;;;;;;;;;;;;;;5114465;28;19928;-50
2023/12/17 16:30:01;;;;;;;;;;;;;;;;;;5114232;28;19924;-50
2023/12/17 16:32:27;;;;;;;;;;;;;;;;;;5114610;28;19924;-50
2023/12/17 16:34:56;;;;;;;;;;;;;;;;;;5114179;28;20026;-51
2023/12/17 16:37:22;;;;;;;;;;;;;;;;;;5114358;28;19928;-52
2023/12/17 16:39:48;;;;;;;;;;;;;;;;;;5114153;28;19927;-50